createdAt,value
2022-09-28T00:06:35.594Z,94.33
2022-09-28T00:16:40.664Z,94.33
2022-09-28T00:26:47.654Z,94.11
2022-09-28T00:36:50.526Z,94.18
2022-09-28T00:46:58.611Z,94.02
2022-09-28T00:57:03.765Z,94.09
2022-09-28T01:07:09.839Z,93.94
2022-09-28T01:17:16.164Z,93.54
2022-09-28T01:27:24.077Z,93.55
2022-09-28T01:37:33.579Z,93.45
2022-09-28T01:47:40.946Z,93.18
2022-09-28T01:57:48.588Z,93.24
2022-09-28T02:07:58.190Z,93.07
2022-09-28T02:18:01.092Z,92.99
2022-09-28T02:28:07.307Z,93.08
2022-09-28T02:38:11.364Z,92.84
2022-09-28T02:48:43.078Z,92.55
2022-09-28T02:58:57.479Z,92.69
2022-09-28T03:20:23.076Z,92.63
2022-09-28T03:30:25.811Z,92.63
2022-09-28T03:40:29.971Z,92.93
2022-09-28T03:50:32.778Z,92.69
2022-09-28T04:00:39.149Z,92.82
2022-09-28T04:10:41.877Z,92.76
2022-09-28T04:20:48.088Z,93.04
2022-09-28T04:30:51.093Z,92.92
2022-09-28T04:40:55.140Z,93.09
2022-09-28T04:50:58.999Z,93.31
2022-09-28T05:01:05.693Z,93.37
2022-09-28T05:11:11.290Z,93.52
2022-09-28T05:21:16.470Z,93.83
2022-09-28T05:31:19.138Z,94.35
2022-09-28T05:41:23.239Z,94.92
2022-09-28T05:51:25.959Z,94.70
2022-09-28T06:01:30.062Z,95.28
2022-09-28T06:11:33.173Z,95.07
2022-09-28T06:21:37.171Z,95.61
2022-09-28T06:31:39.839Z,95.15
2022-09-28T06:41:44.105Z,94.78
2022-09-28T06:51:47.158Z,94.38
2022-09-28T07:01:51.232Z,94.14
2022-09-28T07:11:53.904Z,94.15
2022-09-28T07:22:04.849Z,93.75
2022-09-28T07:32:08.360Z,94.27
2022-09-28T07:42:12.350Z,93.65
2022-09-28T07:52:14.991Z,93.31
2022-09-28T08:02:20.313Z,93.04
2022-09-28T08:12:23.072Z,92.91
2022-09-28T08:22:27.072Z,92.80
2022-09-28T08:32:31.128Z,91.82
2022-09-28T08:42:40.831Z,91.24
2022-09-28T08:52:47.981Z,90.92
2022-09-28T09:02:52.321Z,90.47
2022-09-28T09:13:05.047Z,89.94
2022-09-28T09:23:18.420Z,87.43
2022-09-28T09:33:59.128Z,89.31
2022-09-28T09:44:24.284Z,87.87
2022-09-28T09:54:32.121Z,85.61
2022-09-28T10:04:41.633Z,84.14
2022-09-28T10:14:44.500Z,83.31
2022-09-28T10:24:52.384Z,80.68
2022-09-28T10:35:14.323Z,78.72
2022-09-28T10:45:23.189Z,78.63
2022-09-28T10:55:32.280Z,77.27
2022-09-28T11:05:39.266Z,75.93
2022-09-28T11:15:44.443Z,75.12
2022-09-28T11:25:59.824Z,41.97
2022-09-28T11:36:18.906Z,35.78
2022-09-28T11:46:31.880Z,37.85
2022-09-28T11:56:38.780Z,50.20
2022-09-28T12:06:50.736Z,47.08
2022-09-28T12:17:06.869Z,53.99
2022-09-28T12:27:18.410Z,28.81
2022-09-28T12:37:36.372Z,26.35
2022-09-28T12:48:12.773Z,33.37
2022-09-28T12:58:29.884Z,38.50
2022-09-28T13:08:40.967Z,47.20
2022-09-28T13:18:50.180Z,52.44
2022-09-28T13:28:56.947Z,52.20
2022-09-28T13:39:01.090Z,55.82
2022-09-28T13:49:13.994Z,58.55
2022-09-28T13:59:22.829Z,59.85
2022-09-28T14:09:41.426Z,58.53
2022-09-28T14:19:44.466Z,59.74
2022-09-28T14:29:54.286Z,59.58
2022-09-28T14:40:14.443Z,59.71
2022-09-28T14:50:25.360Z,59.65
2022-09-28T15:00:31.756Z,59.67
2022-09-28T15:10:39.021Z,59.28
2022-09-28T15:20:43.512Z,59.30
2022-09-28T15:30:47.594Z,59.64
2022-09-28T15:40:50.809Z,61.25
2022-09-28T15:51:05.053Z,62.48
2022-09-28T16:01:26.711Z,63.25
2022-09-28T16:11:37.903Z,62.08
2022-09-28T16:21:47.049Z,63.24
2022-09-28T16:31:53.370Z,65.44
2022-09-28T16:42:01.747Z,67.13
2022-09-28T16:52:11.028Z,68.26
2022-09-28T17:02:35.328Z,69.68
2022-09-28T17:12:41.975Z,70.87
2022-09-28T17:22:44.631Z,71.79
2022-09-28T17:32:48.853Z,73.00
2022-09-28T17:42:55.153Z,74.52
2022-09-28T17:53:02.768Z,75.89
2022-09-28T18:03:20.509Z,76.93
2022-09-28T18:13:24.680Z,77.60
2022-09-28T18:23:27.354Z,78.45
2022-09-28T18:33:31.321Z,79.13
2022-09-28T18:43:36.378Z,79.60
2022-09-28T18:53:41.122Z,80.36
2022-09-28T19:03:44.300Z,80.94
2022-09-28T19:13:48.473Z,81.75
2022-09-28T19:23:54.441Z,82.39
2022-09-28T19:33:58.441Z,82.37
2022-09-28T19:44:02.793Z,82.91
2022-09-28T19:54:07.218Z,83.46
2022-09-28T20:04:11.294Z,83.91
2022-09-28T20:14:16.127Z,83.91
2022-09-28T20:24:19.117Z,84.26
2022-09-28T20:34:23.265Z,84.34
2022-09-28T20:44:26.108Z,84.42
2022-09-28T20:54:31.029Z,84.26
2022-09-28T21:04:34.039Z,84.93
2022-09-28T21:14:38.129Z,84.83
2022-09-28T21:24:40.841Z,84.78
2022-09-28T21:34:44.900Z,85.60
2022-09-28T21:44:47.763Z,86.10
2022-09-28T21:54:52.100Z,85.67
2022-09-28T22:04:54.732Z,85.26
2022-09-28T22:14:58.988Z,85.90
2022-09-28T22:25:01.820Z,86.01
2022-09-28T22:35:06.858Z,85.64
2022-09-28T22:45:09.876Z,85.67
2022-09-28T22:55:14.203Z,85.80
2022-09-28T23:05:17.151Z,86.03
2022-09-28T23:15:21.507Z,86.33
2022-09-28T23:25:24.329Z,86.81
2022-09-28T23:35:28.302Z,86.18
2022-09-28T23:45:30.996Z,86.17
2022-09-28T23:55:35.101Z,85.79
